Terminal Aerodrome Forecast
Issued by NWS

Home | Current Version | Previous Version | Graphics & Text | Print | Product List | Glossary On
Versions: 1 2 3 4 5 6 7 8 9 10 11 12 13 14 15 16
000
FTUS43 KGRB 271124
TAFCWA
TAF
KCWA 271124Z 2712/2812 27011KT P6SM OVC035
      TEMPO 2712/2714 -SHRA BKN025
     FM271400 28014G19KT P6SM OVC023
      TEMPO 2714/2716 -SHRA
     FM271600 29013G20KT P6SM -SHRA OVC017
     FM280000 30008KT P6SM -SHRA OVC013
     FM280300 32007KT P6SM -SHRA OVC006
     FM280900 33008KT P6SM OVC004=

USA.gov is the U.S. government's official web portal to all federal, state and local government web resources and services.